createdAt,value
2017-08-08T00:00:36.912Z,53.31
2017-08-08T00:01:36.909Z,53.21
2017-08-08T00:02:37.203Z,53.50
2017-08-08T00:03:36.888Z,53.31
2017-08-08T00:04:36.906Z,53.40
2017-08-08T00:05:36.895Z,53.40
2017-08-08T00:06:36.886Z,53.50
2017-08-08T00:07:36.875Z,53.59
2017-08-08T00:08:36.904Z,53.69
2017-08-08T00:09:36.855Z,53.50
2017-08-08T00:10:36.855Z,53.88
2017-08-08T00:11:36.844Z,54.08
2017-08-08T00:12:36.863Z,54.08
2017-08-08T00:13:36.828Z,54.17
2017-08-08T00:14:36.828Z,53.78
2017-08-08T00:15:36.825Z,53.98
2017-08-08T00:16:36.813Z,54.08
2017-08-08T00:17:37.179Z,53.78
2017-08-08T00:18:36.791Z,53.78
2017-08-08T00:19:36.793Z,53.78
2017-08-08T00:20:36.790Z,53.76
2017-08-08T00:21:36.773Z,53.88
2017-08-08T00:22:36.760Z,54.05
2017-08-08T00:23:36.818Z,53.59
2017-08-08T00:24:36.763Z,53.76
2017-08-08T00:25:36.743Z,53.59
2017-08-08T00:26:36.735Z,53.69
2017-08-08T00:27:36.728Z,53.59
2017-08-08T00:28:36.755Z,53.76
2017-08-08T00:29:36.725Z,53.59
2017-08-08T00:30:36.732Z,53.38
2017-08-08T00:31:36.702Z,53.88
2017-08-08T00:32:36.696Z,54.05
2017-08-08T00:33:37.148Z,54.34
2017-08-08T00:34:36.697Z,54.05
2017-08-08T00:35:36.686Z,54.14
2017-08-08T00:36:36.678Z,54.14
2017-08-08T00:37:36.678Z,54.34
2017-08-08T00:38:36.669Z,54.34
2017-08-08T00:39:36.960Z,54.14
2017-08-08T00:40:36.637Z,54.05
2017-08-08T00:41:36.653Z,54.24
2017-08-08T00:42:36.626Z,54.05
2017-08-08T00:43:36.628Z,54.05
2017-08-08T00:44:36.634Z,53.96
2017-08-08T00:45:36.636Z,54.43
2017-08-08T00:46:36.629Z,54.43
2017-08-08T00:47:36.587Z,54.34
2017-08-08T00:48:37.032Z,54.34
2017-08-08T00:49:36.589Z,54.72
2017-08-08T00:50:36.583Z,54.72
2017-08-08T00:51:36.565Z,54.63
2017-08-08T00:52:36.554Z,54.24
2017-08-08T00:53:36.555Z,54.43
2017-08-08T00:54:36.899Z,54.43
2017-08-08T00:55:36.534Z,54.24
2017-08-08T00:56:36.529Z,54.14
2017-08-08T00:57:36.521Z,54.14
2017-08-08T00:58:36.525Z,54.14
2017-08-08T00:59:36.507Z,54.53
2017-08-08T01:00:36.953Z,54.53
2017-08-08T01:01:36.510Z,54.43
2017-08-08T01:02:36.492Z,54.43
2017-08-08T01:03:36.490Z,54.14
2017-08-08T01:04:36.474Z,54.14
2017-08-08T01:05:36.480Z,54.43
2017-08-08T01:06:36.835Z,54.05
2017-08-08T01:07:36.457Z,54.14
2017-08-08T01:08:36.445Z,54.43
2017-08-08T01:09:36.450Z,54.34
2017-08-08T01:10:36.450Z,54.05
2017-08-08T01:11:36.434Z,54.34
2017-08-08T01:12:36.730Z,54.05
2017-08-08T01:13:36.422Z,54.24
2017-08-08T01:14:36.411Z,54.14
2017-08-08T01:15:36.398Z,54.43
2017-08-08T01:16:36.418Z,54.34
2017-08-08T01:17:36.383Z,54.05
2017-08-08T01:18:36.414Z,54.43
2017-08-08T01:19:36.377Z,54.72
2017-08-08T01:20:36.442Z,54.34
2017-08-08T01:21:36.364Z,54.53
2017-08-08T01:22:36.674Z,54.24
2017-08-08T01:23:36.352Z,54.82
2017-08-08T01:24:36.331Z,54.63
2017-08-08T01:25:36.326Z,54.63
2017-08-08T01:26:36.324Z,54.34
2017-08-08T01:27:36.309Z,54.82
2017-08-08T01:28:36.526Z,54.82
2017-08-08T01:29:36.299Z,54.82
2017-08-08T01:30:36.300Z,54.91
2017-08-08T01:31:36.296Z,55.11
2017-08-08T01:32:36.285Z,55.30
2017-08-08T01:33:36.267Z,55.11
2017-08-08T01:34:36.627Z,55.11
2017-08-08T01:35:36.255Z,55.11
2017-08-08T01:36:36.258Z,55.11
2017-08-08T01:37:36.252Z,55.20
2017-08-08T01:38:36.245Z,55.11
2017-08-08T01:39:36.242Z,55.20
2017-08-08T01:40:36.650Z,54.91
2017-08-08T01:41:36.214Z,54.99
2017-08-08T01:42:36.220Z,54.82
2017-08-08T01:43:36.219Z,55.40
2017-08-08T01:44:36.191Z,55.20
2017-08-08T01:45:36.194Z,55.30
2017-08-08T01:46:36.205Z,55.08
2017-08-08T01:47:36.170Z,55.11
2017-08-08T01:48:36.567Z,55.37
2017-08-08T01:49:36.166Z,55.20
2017-08-08T01:50:36.150Z,54.99
2017-08-08T01:51:36.144Z,55.18
2017-08-08T01:52:36.148Z,55.18
2017-08-08T01:53:36.126Z,54.89
2017-08-08T01:54:36.168Z,55.20
2017-08-08T01:55:36.128Z,55.27
2017-08-08T01:56:36.119Z,54.99
2017-08-08T01:57:36.107Z,55.08
2017-08-08T01:58:36.134Z,54.89
2017-08-08T01:59:36.095Z,55.08
2017-08-08T02:00:36.092Z,54.89
2017-08-08T02:01:36.071Z,55.27
2017-08-08T02:02:36.070Z,55.76
2017-08-08T02:03:36.433Z,55.46
2017-08-08T02:04:36.049Z,55.37
2017-08-08T02:05:36.043Z,55.37
2017-08-08T02:06:36.046Z,55.37
2017-08-08T02:07:36.042Z,55.85
2017-08-08T02:08:36.034Z,55.66
2017-08-08T02:09:36.056Z,55.85
2017-08-08T02:10:36.010Z,55.76
2017-08-08T02:11:36.018Z,55.85
2017-08-08T02:12:35.994Z,55.85
2017-08-08T02:13:36.365Z,55.37
2017-08-08T02:14:35.979Z,55.46
2017-08-08T02:15:35.975Z,55.46
2017-08-08T02:16:35.981Z,55.76
2017-08-08T02:17:35.971Z,55.76
2017-08-08T02:18:35.964Z,55.76
2017-08-08T02:19:36.293Z,55.76
2017-08-08T02:20:35.941Z,55.85
2017-08-08T02:21:35.929Z,55.76
2017-08-08T02:22:35.925Z,55.76
2017-08-08T02:23:35.937Z,55.85
2017-08-08T02:24:35.920Z,55.76
2017-08-08T02:25:36.289Z,55.85
2017-08-08T02:26:35.896Z,55.94
2017-08-08T02:27:35.890Z,55.94
2017-08-08T02:28:35.879Z,55.85
2017-08-08T02:29:35.873Z,55.85
2017-08-08T02:30:35.870Z,56.14
2017-08-08T02:31:35.903Z,56.23
2017-08-08T02:32:35.854Z,55.94
2017-08-08T02:33:35.853Z,56.33
2017-08-08T02:34:36.050Z,56.04
2017-08-08T02:35:35.848Z,55.94
2017-08-08T02:36:35.831Z,55.76
2017-08-08T02:37:35.827Z,55.85
2017-08-08T02:38:35.810Z,56.23
2017-08-08T02:39:35.813Z,56.04
2017-08-08T02:40:36.160Z,56.43
2017-08-08T02:41:35.799Z,56.71
2017-08-08T02:42:35.795Z,56.81
2017-08-08T02:43:35.794Z,56.71
2017-08-08T02:44:35.764Z,56.33
2017-08-08T02:45:35.761Z,56.71
2017-08-08T02:46:36.089Z,56.62
2017-08-08T02:47:35.752Z,56.81
2017-08-08T02:48:35.734Z,56.71
2017-08-08T02:49:35.730Z,56.81
2017-08-08T02:50:35.735Z,56.04
2017-08-08T02:51:35.715Z,56.14
2017-08-08T02:52:35.742Z,55.94
2017-08-08T02:53:35.700Z,55.94
2017-08-08T02:54:35.700Z,55.94
2017-08-08T02:55:35.686Z,56.23
2017-08-08T02:56:35.692Z,56.23
2017-08-08T02:57:36.001Z,56.52
2017-08-08T02:58:35.693Z,56.52
2017-08-08T02:59:35.668Z,56.62
2017-08-08T03:00:35.663Z,56.81
2017-08-08T03:01:35.661Z,56.62
2017-08-08T03:02:35.647Z,56.71
2017-08-08T03:03:35.993Z,56.71
2017-08-08T03:04:35.634Z,56.71
2017-08-08T03:05:35.616Z,56.71
2017-08-08T03:06:35.624Z,56.71
2017-08-08T03:07:35.610Z,56.91
2017-08-08T03:08:35.600Z,56.91
2017-08-08T03:09:36.049Z,56.43
2017-08-08T03:10:35.592Z,56.91
2017-08-08T03:11:35.586Z,56.91
2017-08-08T03:12:35.575Z,56.91
2017-08-08T03:13:35.578Z,57.00
2017-08-08T03:14:35.554Z,56.81
2017-08-08T03:15:35.906Z,57.00
2017-08-08T03:16:35.549Z,57.00
2017-08-08T03:17:35.541Z,56.91
2017-08-08T03:18:35.536Z,57.10
2017-08-08T03:19:35.526Z,57.10
2017-08-08T03:20:35.505Z,57.00
2017-08-08T03:21:35.885Z,56.91
2017-08-08T03:22:35.511Z,56.81
2017-08-08T03:23:35.497Z,56.23
2017-08-08T03:24:35.489Z,56.23
2017-08-08T03:25:35.486Z,56.43
2017-08-08T03:26:35.467Z,56.23
2017-08-08T03:27:35.819Z,56.52
2017-08-08T03:28:35.449Z,57.00
2017-08-08T03:29:35.459Z,57.00
2017-08-08T03:30:35.440Z,56.52
2017-08-08T03:31:35.439Z,56.81
2017-08-08T03:32:35.434Z,56.52
2017-08-08T03:33:35.656Z,56.62
2017-08-08T03:34:35.420Z,56.68
2017-08-08T03:35:35.411Z,56.71
2017-08-08T03:36:35.405Z,56.62
2017-08-08T03:37:35.398Z,56.62
2017-08-08T03:38:35.378Z,56.78
2017-08-08T03:39:35.680Z,56.68
2017-08-08T03:40:35.371Z,56.88
2017-08-08T03:41:35.365Z,56.59
2017-08-08T03:42:35.361Z,56.59
2017-08-08T03:43:35.347Z,56.78
2017-08-08T03:44:35.345Z,56.59
2017-08-08T03:45:35.673Z,56.88
2017-08-08T03:46:35.321Z,56.59
2017-08-08T03:47:35.308Z,56.98
2017-08-08T03:48:35.319Z,56.68
2017-08-08T03:49:35.298Z,56.91
2017-08-08T03:50:35.317Z,56.71
2017-08-08T03:51:35.695Z,56.78
2017-08-08T03:52:35.284Z,56.68
2017-08-08T03:53:35.269Z,56.98
2017-08-08T03:54:35.262Z,56.68
2017-08-08T03:55:35.266Z,56.59
2017-08-08T03:56:35.242Z,56.78
2017-08-08T03:57:35.273Z,57.17
2017-08-08T03:58:35.241Z,56.78
2017-08-08T03:59:35.225Z,56.88
2017-08-08T04:00:35.568Z,56.59
2017-08-08T04:01:35.220Z,56.68
2017-08-08T04:02:35.209Z,56.68
2017-08-08T04:03:35.189Z,56.98
2017-08-08T04:04:35.196Z,57.17
2017-08-08T04:05:35.190Z,56.59
2017-08-08T04:06:35.623Z,56.78
2017-08-08T04:07:35.172Z,56.98
2017-08-08T04:08:35.158Z,56.98
2017-08-08T04:09:35.145Z,57.17
2017-08-08T04:10:35.151Z,56.78
2017-08-08T04:11:35.136Z,57.45
2017-08-08T04:12:35.374Z,57.07
2017-08-08T04:13:35.123Z,57.17
2017-08-08T04:14:35.120Z,57.55
2017-08-08T04:15:35.105Z,57.36
2017-08-08T04:16:35.098Z,57.45
2017-08-08T04:17:35.101Z,57.36
2017-08-08T04:18:35.292Z,57.14
2017-08-08T04:19:35.072Z,57.90
2017-08-08T04:20:35.076Z,57.62
2017-08-08T04:21:35.060Z,57.62
2017-08-08T04:22:35.061Z,57.84
2017-08-08T04:23:35.042Z,57.52
2017-08-08T04:24:35.059Z,57.62
2017-08-08T04:25:35.047Z,57.43
2017-08-08T04:26:35.037Z,57.36
2017-08-08T04:27:35.035Z,57.33
2017-08-08T04:28:35.006Z,57.45
2017-08-08T04:29:35.344Z,57.45
2017-08-08T04:30:34.994Z,57.65
2017-08-08T04:31:34.986Z,57.65
2017-08-08T04:32:34.987Z,58.10
2017-08-08T04:33:34.970Z,57.90
2017-08-08T04:34:34.971Z,58.10
2017-08-08T04:35:35.282Z,58.10
2017-08-08T04:36:34.941Z,57.65
2017-08-08T04:37:34.938Z,58.10
2017-08-08T04:38:34.929Z,57.43
2017-08-08T04:39:34.934Z,57.71
2017-08-08T04:40:34.924Z,57.90
2017-08-08T04:41:35.291Z,57.81
2017-08-08T04:42:34.910Z,58.00
2017-08-08T04:43:34.903Z,58.29
2017-08-08T04:44:34.917Z,58.32
2017-08-08T04:45:34.889Z,58.42
2017-08-08T04:46:34.887Z,58.39
2017-08-08T04:47:35.088Z,58.67
2017-08-08T04:48:34.863Z,58.87
2017-08-08T04:49:34.844Z,58.67
2017-08-08T04:50:34.839Z,59.06
2017-08-08T04:51:34.845Z,58.48
2017-08-08T04:52:34.836Z,58.67
2017-08-08T04:53:35.287Z,58.87
2017-08-08T04:54:34.826Z,58.58
2017-08-08T04:55:34.817Z,58.96
2017-08-08T04:56:34.804Z,58.58
2017-08-08T04:57:34.807Z,58.67
2017-08-08T04:58:34.790Z,58.39
2017-08-08T04:59:34.975Z,58.48
2017-08-08T05:00:34.760Z,58.48
2017-08-08T05:01:34.758Z,58.96
2017-08-08T05:02:34.761Z,58.29
2017-08-08T05:03:34.739Z,58.22
2017-08-08T05:04:34.744Z,58.58
2017-08-08T05:05:35.141Z,58.39
2017-08-08T05:06:34.739Z,58.42
2017-08-08T05:07:34.708Z,58.61
2017-08-08T05:08:34.714Z,58.51
2017-08-08T05:09:34.710Z,58.22
2017-08-08T05:10:34.700Z,58.42
2017-08-08T05:11:35.091Z,58.22
2017-08-08T05:12:34.678Z,58.42
2017-08-08T05:13:34.679Z,58.22
2017-08-08T05:14:34.660Z,58.42
2017-08-08T05:15:34.649Z,58.22
2017-08-08T05:16:34.659Z,58.42
2017-08-08T05:17:34.927Z,58.42
2017-08-08T05:18:34.627Z,58.32
2017-08-08T05:19:34.643Z,58.22
2017-08-08T05:20:34.626Z,58.61
2017-08-08T05:21:34.607Z,58.22
2017-08-08T05:22:34.610Z,58.32
2017-08-08T05:23:34.623Z,58.42
2017-08-08T05:24:34.584Z,58.32
2017-08-08T05:25:34.575Z,58.42
2017-08-08T05:26:34.569Z,58.51
2017-08-08T05:27:34.916Z,58.51
2017-08-08T05:28:34.564Z,58.42
2017-08-08T05:29:34.552Z,58.51
2017-08-08T05:30:34.567Z,58.22
2017-08-08T05:31:34.543Z,58.32
2017-08-08T05:32:34.544Z,58.22
2017-08-08T05:33:34.957Z,58.80
2017-08-08T05:34:34.521Z,58.61
2017-08-08T05:35:34.513Z,58.70
2017-08-08T05:36:34.499Z,58.70
2017-08-08T05:37:34.487Z,58.61
2017-08-08T05:38:34.501Z,58.42
2017-08-08T05:39:34.833Z,58.61
2017-08-08T05:40:34.466Z,58.61
2017-08-08T05:41:34.469Z,58.89
2017-08-08T05:42:34.467Z,58.61
2017-08-08T05:43:34.463Z,58.89
2017-08-08T05:44:34.437Z,59.09
2017-08-08T05:45:34.467Z,59.09
2017-08-08T05:46:34.420Z,58.89
2017-08-08T05:47:34.418Z,58.89
2017-08-08T05:48:34.739Z,58.99
2017-08-08T05:49:34.412Z,58.92
2017-08-08T05:50:34.397Z,58.73
2017-08-08T05:51:34.408Z,58.70
2017-08-08T05:52:34.395Z,58.73
2017-08-08T05:53:34.383Z,58.70
2017-08-08T05:54:34.413Z,58.70
2017-08-08T05:55:34.370Z,58.70
2017-08-08T05:56:34.350Z,58.73
2017-08-08T05:57:34.352Z,58.51
2017-08-08T05:58:34.734Z,58.83
2017-08-08T05:59:34.343Z,58.83
2017-08-08T06:00:34.324Z,58.64
2017-08-08T06:01:34.314Z,58.64
2017-08-08T06:02:34.310Z,58.73
2017-08-08T06:03:34.309Z,58.73
2017-08-08T06:04:34.335Z,58.73
2017-08-08T06:05:34.287Z,59.22
2017-08-08T06:06:34.286Z,58.92
2017-08-08T06:07:34.281Z,58.73
2017-08-08T06:08:34.564Z,58.92
2017-08-08T06:09:34.267Z,59.02
2017-08-08T06:10:34.268Z,58.64
2017-08-08T06:11:34.241Z,58.64
2017-08-08T06:12:34.235Z,59.22
2017-08-08T06:13:34.225Z,59.12
2017-08-08T06:14:34.250Z,59.12
2017-08-08T06:15:34.238Z,59.57
2017-08-08T06:16:34.205Z,59.60
2017-08-08T06:17:34.203Z,59.79
2017-08-08T06:18:34.191Z,59.47
2017-08-08T06:19:34.490Z,59.57
2017-08-08T06:20:34.184Z,59.38
2017-08-08T06:21:34.185Z,59.76
2017-08-08T06:22:34.175Z,60.05
2017-08-08T06:23:34.154Z,59.86
2017-08-08T06:24:34.160Z,59.86
2017-08-08T06:25:34.172Z,60.14
2017-08-08T06:26:34.131Z,59.95
2017-08-08T06:27:34.123Z,59.99
2017-08-08T06:28:34.131Z,59.95
2017-08-08T06:29:34.123Z,59.76
2017-08-08T06:30:34.154Z,59.99
2017-08-08T06:31:34.104Z,59.86
2017-08-08T06:32:34.107Z,59.95
2017-08-08T06:33:34.104Z,59.99
2017-08-08T06:34:34.101Z,59.99
2017-08-08T06:35:34.408Z,59.79
2017-08-08T06:36:34.071Z,59.99
2017-08-08T06:37:34.068Z,59.99
2017-08-08T06:38:34.048Z,60.08
2017-08-08T06:39:34.052Z,59.79
2017-08-08T06:40:34.041Z,59.99
2017-08-08T06:41:34.451Z,59.99
2017-08-08T06:42:34.029Z,60.17
2017-08-08T06:43:34.011Z,60.08
2017-08-08T06:44:34.001Z,60.17
2017-08-08T06:45:33.998Z,60.08
2017-08-08T06:46:34.003Z,60.17
2017-08-08T06:47:34.031Z,59.99
2017-08-08T06:48:33.977Z,59.79
2017-08-08T06:49:33.980Z,60.17
2017-08-08T06:50:34.405Z,59.60
2017-08-08T06:51:33.970Z,59.60
2017-08-08T06:52:33.957Z,59.60
2017-08-08T06:53:33.951Z,59.53
2017-08-08T06:54:33.956Z,59.53
2017-08-08T06:55:33.939Z,59.89
2017-08-08T06:56:33.961Z,59.89
2017-08-08T06:57:33.923Z,59.63
2017-08-08T06:58:33.924Z,59.92
2017-08-08T06:59:33.908Z,59.82
2017-08-08T07:00:34.257Z,59.50
2017-08-08T07:01:33.903Z,59.50
2017-08-08T07:02:33.877Z,59.34
2017-08-08T07:03:33.870Z,59.50
2017-08-08T07:04:33.862Z,59.99
2017-08-08T07:05:33.876Z,60.11
2017-08-08T07:06:33.890Z,59.69
2017-08-08T07:07:33.840Z,60.08
2017-08-08T07:08:33.855Z,60.11
2017-08-08T07:09:33.827Z,60.11
2017-08-08T07:10:34.239Z,59.89
2017-08-08T07:11:33.821Z,60.39
2017-08-08T07:12:33.820Z,60.21
2017-08-08T07:13:33.817Z,60.37
2017-08-08T07:14:33.809Z,60.75
2017-08-08T07:15:33.797Z,60.66
2017-08-08T07:16:34.157Z,60.66
2017-08-08T07:17:33.782Z,60.17
2017-08-08T07:18:33.767Z,60.46
2017-08-08T07:19:33.757Z,60.56
2017-08-08T07:20:33.753Z,60.56
2017-08-08T07:21:33.762Z,60.85
2017-08-08T07:22:34.043Z,60.85
2017-08-08T07:23:33.729Z,60.85
2017-08-08T07:24:33.732Z,61.04
2017-08-08T07:25:33.727Z,60.75
2017-08-08T07:26:33.721Z,61.07
2017-08-08T07:27:33.705Z,60.78
2017-08-08T07:28:33.927Z,60.94
2017-08-08T07:29:33.700Z,60.85
2017-08-08T07:30:33.685Z,60.37
2017-08-08T07:31:33.676Z,60.69
2017-08-08T07:32:33.670Z,60.59
2017-08-08T07:33:33.673Z,60.30
2017-08-08T07:34:33.981Z,60.49
2017-08-08T07:35:33.661Z,60.21
2017-08-08T07:36:33.641Z,60.21
2017-08-08T07:37:33.637Z,60.39
2017-08-08T07:38:33.642Z,60.49
2017-08-08T07:39:33.634Z,60.30
2017-08-08T07:40:33.986Z,60.11
2017-08-08T07:41:33.615Z,60.11
2017-08-08T07:42:33.613Z,60.30
2017-08-08T07:43:33.602Z,60.21
2017-08-08T07:44:33.586Z,60.21
2017-08-08T07:45:33.594Z,60.39
2017-08-08T07:46:33.977Z,60.01
2017-08-08T07:47:33.575Z,59.92
2017-08-08T07:48:33.573Z,60.01
2017-08-08T07:49:33.547Z,60.11
2017-08-08T07:50:33.548Z,60.21
2017-08-08T07:51:33.553Z,60.01
2017-08-08T07:52:33.781Z,59.44
2017-08-08T07:53:33.537Z,59.53
2017-08-08T07:54:33.516Z,59.63
2017-08-08T07:55:33.513Z,59.53
2017-08-08T07:56:33.517Z,59.53
2017-08-08T07:57:33.495Z,59.72
2017-08-08T07:58:33.796Z,59.56
2017-08-08T07:59:33.499Z,59.66
2017-08-08T08:00:33.488Z,59.47
2017-08-08T08:01:33.473Z,59.56
2017-08-08T08:02:33.482Z,59.47
2017-08-08T08:03:33.461Z,59.63
2017-08-08T08:04:33.794Z,59.47
2017-08-08T08:05:33.459Z,59.66
2017-08-08T08:06:33.451Z,59.56
2017-08-08T08:07:33.451Z,59.56
2017-08-08T08:08:33.429Z,59.85
2017-08-08T08:09:33.433Z,59.37
2017-08-08T08:10:33.782Z,59.66
2017-08-08T08:11:33.418Z,59.66
2017-08-08T08:12:33.419Z,59.75
2017-08-08T08:13:33.399Z,59.66
2017-08-08T08:14:33.402Z,59.37
2017-08-08T08:15:33.401Z,59.37
2017-08-08T08:16:33.419Z,59.85
2017-08-08T08:17:33.383Z,59.75
2017-08-08T08:18:33.360Z,59.56
2017-08-08T08:19:33.356Z,59.56
2017-08-08T08:20:33.353Z,59.75
2017-08-08T08:21:33.382Z,59.75
2017-08-08T08:22:33.341Z,59.56
2017-08-08T08:23:33.328Z,59.56
2017-08-08T08:24:33.333Z,59.75
2017-08-08T08:25:33.318Z,59.85
2017-08-08T08:26:33.344Z,59.85
2017-08-08T08:27:33.313Z,59.56
2017-08-08T08:28:33.302Z,59.56
2017-08-08T08:29:33.302Z,59.85
2017-08-08T08:30:33.283Z,59.56
2017-08-08T08:31:33.606Z,59.75
2017-08-08T08:32:33.280Z,59.75
2017-08-08T08:33:33.277Z,59.56
2017-08-08T08:34:33.268Z,59.75
2017-08-08T08:35:33.251Z,59.56
2017-08-08T08:36:33.242Z,59.56
2017-08-08T08:37:33.690Z,59.75
2017-08-08T08:38:33.243Z,59.66
2017-08-08T08:39:33.222Z,59.75
2017-08-08T08:40:33.234Z,59.47
2017-08-08T08:41:33.230Z,60.04
2017-08-08T08:42:33.214Z,60.04
2017-08-08T08:43:33.435Z,60.24
2017-08-08T08:44:33.202Z,59.94
2017-08-08T08:45:33.184Z,60.04
2017-08-08T08:46:33.190Z,60.07
2017-08-08T08:47:33.184Z,59.88
2017-08-08T08:48:33.187Z,59.97
2017-08-08T08:49:33.389Z,60.27
2017-08-08T08:50:33.166Z,59.78
2017-08-08T08:51:33.147Z,59.97
2017-08-08T08:52:33.141Z,59.59
2017-08-08T08:53:33.144Z,59.59
2017-08-08T08:54:33.130Z,59.49
2017-08-08T08:55:33.469Z,59.69
2017-08-08T08:56:33.117Z,59.78
2017-08-08T08:57:33.125Z,59.11
2017-08-08T08:58:33.113Z,59.59
2017-08-08T08:59:33.097Z,59.69
2017-08-08T09:00:33.090Z,59.59
2017-08-08T09:01:33.114Z,59.59
2017-08-08T09:02:33.091Z,59.88
2017-08-08T09:03:33.071Z,59.59
2017-08-08T09:04:33.070Z,59.69
2017-08-08T09:05:33.080Z,59.20
2017-08-08T09:06:33.062Z,58.92
2017-08-08T09:07:33.402Z,58.92
2017-08-08T09:08:33.059Z,59.14
2017-08-08T09:09:33.050Z,58.95
2017-08-08T09:10:33.044Z,59.04
2017-08-08T09:11:33.031Z,58.82
2017-08-08T09:12:33.040Z,59.14
2017-08-08T09:13:33.408Z,59.04
2017-08-08T09:14:33.016Z,59.04
2017-08-08T09:15:32.997Z,58.85
2017-08-08T09:16:33.071Z,58.85
2017-08-08T09:17:33.732Z,58.95
2017-08-08T09:18:34.182Z,59.14
2017-08-08T09:19:33.892Z,58.95
2017-08-08T09:20:32.973Z,59.04
2017-08-08T09:21:32.962Z,59.52
2017-08-08T09:22:32.991Z,59.43
2017-08-08T09:23:34.006Z,59.52
2017-08-08T09:24:32.944Z,59.72
2017-08-08T09:25:33.420Z,59.72
2017-08-08T09:26:32.931Z,59.81
2017-08-08T09:27:34.016Z,59.75
2017-08-08T09:28:33.744Z,59.81
2017-08-08T09:29:33.730Z,59.81
2017-08-08T09:30:32.925Z,59.72
2017-08-08T09:31:35.385Z,59.62
2017-08-08T09:32:33.437Z,59.94
2017-08-08T09:33:32.898Z,59.62
2017-08-08T09:34:32.896Z,60.13
2017-08-08T09:35:32.891Z,60.52
2017-08-08T09:36:32.883Z,60.80
2017-08-08T09:37:33.105Z,60.90
2017-08-08T09:38:32.953Z,61.00
2017-08-08T09:39:33.628Z,60.71
2017-08-08T09:40:32.848Z,60.90
2017-08-08T09:41:32.849Z,61.19
2017-08-08T09:42:32.837Z,60.80
2017-08-08T09:43:34.193Z,61.00
2017-08-08T09:44:32.958Z,60.90
2017-08-08T09:45:33.328Z,60.80
2017-08-08T09:46:32.864Z,60.71
2017-08-08T09:47:32.808Z,60.52
2017-08-08T09:48:33.206Z,60.52
2017-08-08T09:49:34.413Z,60.23
2017-08-08T09:50:33.562Z,60.42
2017-08-08T09:51:34.173Z,60.42
2017-08-08T09:52:32.777Z,60.42
2017-08-08T09:53:32.788Z,60.13
2017-08-08T09:54:32.782Z,60.13
2017-08-08T09:55:33.222Z,60.32
2017-08-08T09:56:32.771Z,60.32
2017-08-08T09:57:32.767Z,60.32
2017-08-08T09:58:34.408Z,60.71
2017-08-08T09:59:33.188Z,60.13
2017-08-08T10:00:32.750Z,60.32
2017-08-08T10:01:32.832Z,60.13
2017-08-08T10:02:34.566Z,60.13
2017-08-08T10:03:33.409Z,59.94
2017-08-08T10:04:33.191Z,60.03
2017-08-08T10:05:33.094Z,60.16
2017-08-08T10:06:33.278Z,60.13
2017-08-08T10:07:33.455Z,60.42
2017-08-08T10:08:34.265Z,59.65
2017-08-08T10:09:32.685Z,59.78
2017-08-08T10:10:32.680Z,59.84
2017-08-08T10:11:32.673Z,59.87
2017-08-08T10:12:32.674Z,59.65
2017-08-08T10:13:32.759Z,59.87
2017-08-08T10:14:33.033Z,59.68
2017-08-08T10:15:32.651Z,59.87
2017-08-08T10:16:32.651Z,59.87
2017-08-08T10:17:34.422Z,59.68
2017-08-08T10:18:33.556Z,59.68
2017-08-08T10:19:32.765Z,59.58
2017-08-08T10:20:32.969Z,59.68
2017-08-08T10:21:33.217Z,59.87
2017-08-08T10:22:33.225Z,59.68
2017-08-08T10:23:33.095Z,59.97
2017-08-08T10:24:33.393Z,59.48
2017-08-08T10:25:35.009Z,59.68
2017-08-08T10:26:33.799Z,59.97
2017-08-08T10:27:33.906Z,59.87
2017-08-08T10:28:32.830Z,59.20
2017-08-08T10:29:32.687Z,59.10
2017-08-08T10:30:33.065Z,59.10
2017-08-08T10:31:32.900Z,59.30
2017-08-08T10:32:33.813Z,59.10
2017-08-08T10:33:33.580Z,59.20
2017-08-08T10:34:32.562Z,59.30
2017-08-08T10:35:32.558Z,58.94
2017-08-08T10:36:32.538Z,59.13
2017-08-08T10:37:33.166Z,58.91
2017-08-08T10:38:32.877Z,58.65
2017-08-08T10:39:33.023Z,58.45
2017-08-08T10:40:32.518Z,58.72
2017-08-08T10:41:33.290Z,57.97
2017-08-08T10:42:32.853Z,58.36
2017-08-08T10:43:32.517Z,58.26
2017-08-08T10:44:32.931Z,57.49
2017-08-08T10:45:34.153Z,57.78
2017-08-08T10:46:33.206Z,58.07
2017-08-08T10:47:47.970Z,57.78
2017-08-08T10:48:33.206Z,57.78
2017-08-08T10:49:33.241Z,57.78
2017-08-08T10:50:32.958Z,58.17
2017-08-08T10:51:32.934Z,57.59
2017-08-08T10:52:32.466Z,58.07
2017-08-08T10:53:32.457Z,57.59
2017-08-08T10:54:32.510Z,57.59
2017-08-08T10:55:32.661Z,57.97
2017-08-08T10:56:33.203Z,57.78
2017-08-08T10:57:33.407Z,57.49
2017-08-08T10:58:32.433Z,57.59
2017-08-08T10:59:32.416Z,57.59
2017-08-08T11:00:33.121Z,57.59
2017-08-08T11:01:33.588Z,57.59
2017-08-08T11:02:33.573Z,57.68
2017-08-08T11:03:32.425Z,57.87
2017-08-08T11:04:33.226Z,57.78
2017-08-08T11:05:33.165Z,57.78
2017-08-08T11:06:33.139Z,57.78
2017-08-08T11:07:32.389Z,57.78
2017-08-08T11:08:32.744Z,57.87
2017-08-08T11:09:33.194Z,57.59
2017-08-08T11:10:33.059Z,58.07
2017-08-08T11:11:33.107Z,57.78
2017-08-08T11:12:32.811Z,57.87
2017-08-08T11:13:33.034Z,57.97
2017-08-08T11:14:33.456Z,57.78
2017-08-08T11:15:32.558Z,57.87
2017-08-08T11:16:32.762Z,57.68
2017-08-08T11:17:32.655Z,58.07
2017-08-08T11:18:33.009Z,57.68
2017-08-08T11:19:32.711Z,57.39
2017-08-08T11:20:32.762Z,57.49
2017-08-08T11:21:32.314Z,57.59
2017-08-08T11:22:32.395Z,57.78
2017-08-08T11:23:32.889Z,57.97
2017-08-08T11:24:33.816Z,58.14
2017-08-08T11:25:33.000Z,58.23
2017-08-08T11:26:33.493Z,58.42
2017-08-08T11:27:32.304Z,57.97
2017-08-08T11:28:32.286Z,58.14
2017-08-08T11:29:33.849Z,58.65
2017-08-08T11:30:32.854Z,58.84
2017-08-08T11:31:32.677Z,58.94
2017-08-08T11:32:32.604Z,58.84
2017-08-08T11:33:33.043Z,59.03
2017-08-08T11:34:32.230Z,59.13
2017-08-08T11:35:32.932Z,58.75
2017-08-08T11:36:32.852Z,58.84
2017-08-08T11:37:32.256Z,58.94
2017-08-08T11:38:33.025Z,58.91
2017-08-08T11:39:32.991Z,58.91
2017-08-08T11:40:33.000Z,59.13
2017-08-08T11:41:32.318Z,59.23
2017-08-08T11:42:32.749Z,59.32
2017-08-08T11:43:32.292Z,59.13
2017-08-08T11:44:32.251Z,59.03
2017-08-08T11:45:32.309Z,59.13
2017-08-08T11:46:32.444Z,59.13
2017-08-08T11:47:32.309Z,59.23
2017-08-08T11:48:32.513Z,59.13
2017-08-08T11:49:32.981Z,59.71
2017-08-08T11:50:32.174Z,60.00
2017-08-08T11:51:32.159Z,59.90
2017-08-08T11:52:32.307Z,60.00
2017-08-08T11:53:32.373Z,60.10
2017-08-08T11:54:32.802Z,59.90
2017-08-08T11:55:32.830Z,60.19
2017-08-08T11:56:32.166Z,60.28
2017-08-08T11:57:32.943Z,60.28
2017-08-08T11:58:32.123Z,60.58
2017-08-08T11:59:32.109Z,60.68
2017-08-08T12:00:33.723Z,60.10
2017-08-08T12:01:32.108Z,60.19
2017-08-08T12:02:32.101Z,60.38
2017-08-08T12:03:32.540Z,60.38
2017-08-08T12:04:32.867Z,60.58
2017-08-08T12:05:32.802Z,60.86
2017-08-08T12:06:33.360Z,60.19
2017-08-08T12:07:32.121Z,60.48
2017-08-08T12:08:32.084Z,60.28
2017-08-08T12:09:32.192Z,59.71
2017-08-08T12:10:32.526Z,60.10
2017-08-08T12:11:32.316Z,59.90
2017-08-08T12:12:32.574Z,59.90
2017-08-08T12:13:32.725Z,59.90
2017-08-08T12:14:32.353Z,59.80
2017-08-08T12:15:32.292Z,59.52
2017-08-08T12:16:32.719Z,60.00
2017-08-08T12:17:32.018Z,59.80
2017-08-08T12:18:32.218Z,59.32
2017-08-08T12:19:31.992Z,59.13
2017-08-08T12:20:31.987Z,59.23
2017-08-08T12:21:31.983Z,59.03
2017-08-08T12:22:31.986Z,59.03
2017-08-08T12:23:31.974Z,59.23
2017-08-08T12:24:32.468Z,59.03
2017-08-08T12:25:32.286Z,59.13
2017-08-08T12:26:31.960Z,59.23
2017-08-08T12:27:31.961Z,59.23
2017-08-08T12:28:31.963Z,59.13
2017-08-08T12:29:31.949Z,59.23
2017-08-08T12:30:32.284Z,59.13
2017-08-08T12:31:31.951Z,59.23
2017-08-08T12:32:31.938Z,59.32
2017-08-08T12:33:31.933Z,59.90
2017-08-08T12:34:31.951Z,59.90
2017-08-08T12:35:31.920Z,59.68
2017-08-08T12:36:32.137Z,59.90
2017-08-08T12:37:31.912Z,60.00
2017-08-08T12:38:31.928Z,60.38
2017-08-08T12:39:33.332Z,60.00
2017-08-08T12:40:31.890Z,60.68
2017-08-08T12:41:31.889Z,60.64
2017-08-08T12:42:32.257Z,61.13
2017-08-08T12:43:32.494Z,60.93
2017-08-08T12:44:31.887Z,60.74
2017-08-08T12:45:31.905Z,60.74
2017-08-08T12:46:31.853Z,60.93
2017-08-08T12:47:31.858Z,61.03
2017-08-08T12:48:32.173Z,61.22
2017-08-08T12:49:31.844Z,61.03
2017-08-08T12:50:31.832Z,61.61
2017-08-08T12:51:31.826Z,61.51
2017-08-08T12:52:31.827Z,61.80